createdAt,value
2023-02-08T07:39:34.931Z,6.40
2023-02-08T07:42:07.212Z,8.50
2023-02-08T07:44:34.330Z,6.93
2023-02-08T07:47:02.053Z,10.63
2023-02-08T07:49:29.289Z,6.47
2023-02-08T07:51:56.359Z,5.95
2023-02-08T07:54:23.542Z,6.60
2023-02-08T07:56:50.580Z,5.60
2023-02-08T07:59:17.735Z,7.00
2023-02-08T08:01:44.887Z,5.80
2023-02-08T08:04:12.707Z,4.47
2023-02-08T08:06:39.783Z,4.90
2023-02-08T08:09:06.985Z,5.50
2023-02-08T08:11:34.076Z,9.25
2023-02-08T08:14:02.653Z,5.07
2023-02-08T08:16:29.750Z,9.82
2023-02-08T08:18:56.868Z,20.37
2023-02-08T08:21:24.102Z,7.03
2023-02-08T08:23:51.125Z,5.95
2023-02-08T08:26:20.732Z,8.98
2023-02-08T08:28:47.941Z,6.25
2023-02-08T08:31:20.071Z,9.45
2023-02-08T08:33:47.425Z,5.65
2023-02-08T08:36:14.448Z,7.10
2023-02-08T08:38:41.790Z,7.60
2023-02-08T08:41:14.714Z,2.53
2023-02-08T08:43:41.824Z,4.95
2023-02-08T08:46:09.530Z,4.20
2023-02-08T08:48:38.964Z,3.70
2023-02-08T08:51:06.871Z,4.50
2023-02-08T08:53:35.692Z,7.75
2023-02-08T08:56:02.712Z,4.45
2023-02-08T08:58:29.813Z,4.05
2023-02-08T09:00:58.833Z,4.57
2023-02-08T09:03:25.907Z,4.60
2023-02-08T09:05:53.096Z,4.95
2023-02-08T09:08:20.162Z,4.32
2023-02-08T09:10:47.178Z,4.73
2023-02-08T09:13:19.424Z,4.30
2023-02-08T09:15:46.819Z,4.18
2023-02-08T09:18:13.865Z,4.15
2023-02-08T09:20:41.679Z,4.32
2023-02-08T09:23:08.920Z,4.22
2023-02-08T09:25:37.438Z,4.72
2023-02-08T09:28:04.994Z,5.35
2023-02-08T09:30:38.401Z,6.07
2023-02-08T09:33:05.427Z,6.03
2023-02-08T09:35:32.394Z,5.40
2023-02-08T09:38:02.316Z,5.85
2023-02-08T09:40:39.273Z,6.10
2023-02-08T09:43:11.640Z,6.22
2023-02-08T09:45:59.265Z,5.68
2023-02-08T09:48:32.805Z,7.15
2023-02-08T09:51:21.793Z,9.17
2023-02-08T09:53:57.003Z,6.88
2023-02-08T09:56:29.491Z,6.38
2023-02-08T09:58:58.149Z,8.40
2023-02-08T10:01:32.669Z,5.22
2023-02-08T10:04:02.004Z,5.75
2023-02-08T10:06:30.364Z,6.72
2023-02-08T10:09:00.140Z,5.32
2023-02-08T10:11:47.467Z,5.07
2023-02-08T10:14:14.539Z,6.85
2023-02-08T10:17:01.060Z,6.03
2023-02-08T10:19:38.029Z,7.30
2023-02-08T10:22:05.436Z,6.28
2023-02-08T10:24:51.559Z,7.47
2023-02-08T10:27:24.678Z,10.15
2023-02-08T10:30:00.860Z,10.57
2023-02-08T10:32:39.973Z,8.33
2023-02-08T10:35:16.920Z,7.10
2023-02-08T10:37:46.198Z,12.57
2023-02-08T10:40:24.163Z,6.85
2023-02-08T10:42:59.256Z,6.30
2023-02-08T10:45:28.603Z,10.20
2023-02-08T10:47:57.366Z,7.90
2023-02-08T10:50:34.862Z,10.07
2023-02-08T10:53:02.015Z,7.47
2023-02-08T10:55:30.761Z,9.93
2023-02-08T10:57:59.441Z,8.43
2023-02-08T11:00:28.252Z,8.57
2023-02-08T11:02:56.395Z,9.15
2023-02-08T11:05:26.546Z,7.40
2023-02-08T11:08:06.184Z,8.93
2023-02-08T11:10:33.591Z,9.05
2023-02-08T11:15:53.026Z,7.95
2023-02-08T11:18:20.101Z,6.63
2023-02-08T11:20:49.276Z,6.93
2023-02-08T11:23:30.270Z,7.35
2023-02-08T11:26:17.691Z,7.30
2023-02-08T11:28:45.019Z,6.37
2023-02-08T11:31:20.077Z,7.57
2023-02-08T11:33:58.794Z,7.60
2023-02-08T11:36:26.041Z,8.55
2023-02-08T11:38:53.263Z,6.50
2023-02-08T11:41:20.845Z,6.63
2023-02-08T11:43:57.816Z,8.23
2023-02-08T11:46:26.660Z,9.32
2023-02-08T11:48:55.253Z,5.82
2023-02-08T11:51:30.482Z,7.25
2023-02-08T11:53:57.898Z,7.25
2023-02-08T11:56:27.548Z,7.53
2023-02-08T11:58:57.562Z,6.63
2023-02-08T12:01:28.874Z,11.52
2023-02-08T12:03:57.718Z,7.45
2023-02-08T12:06:43.748Z,6.13
2023-02-08T12:09:25.557Z,5.88
2023-02-08T12:12:00.958Z,5.05
2023-02-08T12:14:34.133Z,7.97
2023-02-08T12:17:14.765Z,3.55
2023-02-08T12:20:01.000Z,3.50
2023-02-08T12:22:28.833Z,3.45
2023-02-08T12:25:21.248Z,4.85
2023-02-08T12:27:48.422Z,5.00
2023-02-08T12:30:27.780Z,4.22
2023-02-08T12:33:00.394Z,3.60
2023-02-08T12:36:02.767Z,3.85
2023-02-08T12:39:18.540Z,6.20
2023-02-08T12:42:00.262Z,4.50
2023-02-08T12:44:27.277Z,3.47
2023-02-08T12:47:02.185Z,3.13
2023-02-08T12:49:37.265Z,3.58
2023-02-08T12:52:14.619Z,4.00
2023-02-08T12:55:00.654Z,2.80
2023-02-08T12:57:31.446Z,2.28
2023-02-08T13:00:04.226Z,1.80
2023-02-08T13:02:36.346Z,2.37
2023-02-08T13:05:05.579Z,2.45
2023-02-08T13:07:43.766Z,2.60
2023-02-08T13:10:26.549Z,2.55
2023-02-08T13:12:57.087Z,2.58
2023-02-08T13:15:42.372Z,2.07
2023-02-08T13:18:19.210Z,2.20
2023-02-08T13:20:48.474Z,3.05
2023-02-08T13:23:25.536Z,3.00
2023-02-08T13:25:55.266Z,2.60
2023-02-08T13:28:23.687Z,3.47
2023-02-08T13:31:03.705Z,2.88
2023-02-08T13:34:00.929Z,4.30
2023-02-08T13:36:34.358Z,4.28
2023-02-08T13:39:02.349Z,4.70
2023-02-08T13:41:30.392Z,4.07
2023-02-08T13:43:57.436Z,3.15
2023-02-08T13:46:26.384Z,3.72
2023-02-08T13:48:54.947Z,5.18
2023-02-08T13:55:10.997Z,4.47
2023-02-08T13:57:51.079Z,4.78
2023-02-08T14:00:38.497Z,3.88
2023-02-08T14:03:08.626Z,6.63
2023-02-08T14:05:35.852Z,5.60
2023-02-08T14:08:03.783Z,6.65
2023-02-08T14:10:36.820Z,5.20
2023-02-08T14:13:08.364Z,7.95
2023-02-08T14:15:37.724Z,11.60
2023-02-08T14:18:05.340Z,9.57
2023-02-08T14:20:40.096Z,6.22
2023-02-08T14:23:27.486Z,11.25
2023-02-08T14:25:55.974Z,13.90
2023-02-08T14:28:27.834Z,13.65
2023-02-08T14:30:58.096Z,12.15
2023-02-08T14:33:48.212Z,17.35
